Time;durP1;ratioP1;P1;durP2;ratioP2;P2;SDS_P1;SDS_P2;PMS_P1;PMS_P2;Temp;Humidity;BMP_temperature;BMP_pressure;BME280_temperature;BME280_humidity;BME280_pressure;Samples;Min_cycle;Max_cycle;Signal;HPM_P1;HPM_P2
2022/11/03 00:00:26;;;;;;;1.85;1.20;;;19.20;55.50;;;;;;5115064;28;20055;-11
2022/11/03 00:02:51;;;;;;;1.20;1.10;;;19.20;55.50;;;;;;5115298;28;20472;-11
2022/11/03 00:08:02;;;;;;;1.60;1.05;;;19.20;55.50;;;;;;5115129;28;20070;-12
2022/11/03 00:10:29;;;;;;;1.20;0.98;;;19.20;55.50;;;;;;5114878;28;20056;-11
2022/11/03 00:12:55;;;;;;;0.98;0.85;;;19.20;56.00;;;;;;5114419;28;20092;-11
2022/11/03 00:15:21;;;;;;;1.67;1.02;;;19.20;55.50;;;;;;5114851;28;20134;-11
2022/11/03 00:17:46;;;;;;;1.42;0.90;;;19.20;55.50;;;;;;5114880;28;20066;-11
2022/11/03 00:20:12;;;;;;;1.80;0.90;;;19.20;55.50;;;;;;5114576;28;20055;-11
2022/11/03 00:22:38;;;;;;;1.20;0.80;;;19.20;55.50;;;;;;5114813;28;20048;-11
2022/11/03 00:25:04;;;;;;;2.25;0.85;;;19.20;55.50;;;;;;5114650;28;20142;-11
2022/11/03 00:27:29;;;;;;;1.67;1.05;;;19.20;55.60;;;;;;5114854;28;20051;-11
2022/11/03 00:29:55;;;;;;;1.48;1.05;;;19.20;55.50;;;;;;5114504;28;20492;-11
2022/11/03 00:32:20;;;;;;;0.90;0.70;;;19.20;55.50;;;;;;5114694;28;20046;-11
2022/11/03 00:34:46;;;;;;;0.90;0.80;;;19.20;55.50;;;;;;5115052;28;20063;-11
2022/11/03 00:37:11;;;;;;;2.42;1.20;;;19.20;55.50;;;;;;5114857;28;20548;-11
2022/11/03 00:39:37;;;;;;;1.58;0.82;;;19.20;55.50;;;;;;5114424;28;20069;-11
2022/11/03 00:42:03;;;;;;;1.27;0.98;;;19.20;55.50;;;;;;5114303;28;20448;-11
2022/11/03 00:44:28;;;;;;;1.20;0.85;;;19.20;55.60;;;;;;5114744;28;20055;-11
2022/11/03 00:46:54;;;;;;;1.52;1.00;;;19.20;55.60;;;;;;5095959;28;20404;-11
2022/11/03 00:49:19;;;;;;;1.70;0.93;;;19.20;55.60;;;;;;5114821;28;20051;-11
2022/11/03 00:51:45;;;;;;;0.88;0.88;;;19.20;55.60;;;;;;5114234;28;20058;-11
2022/11/03 00:54:10;;;;;;;2.08;1.02;;;19.20;55.60;;;;;;5114316;28;20051;-11
2022/11/03 00:56:38;;;;;;;1.33;0.80;;;19.20;55.60;;;;;;5114866;28;20050;-12
2022/11/03 00:59:05;;;;;;;0.65;0.60;;;19.20;55.60;;;;;;5113363;28;20074;-11
2022/11/03 01:01:34;;;;;;;1.75;1.17;;;19.10;55.50;;;;;;5114337;28;20061;-12
2022/11/03 01:06:49;;;;;;;1.50;0.80;;;19.10;55.50;;;;;;5113901;28;20058;-12
2022/11/03 01:09:20;;;;;;;0.90;0.80;;;19.10;55.50;;;;;;5114004;28;20047;-11
2022/11/03 01:12:03;;;;;;;0.85;0.75;;;19.10;55.50;;;;;;5113989;28;20544;-12
2022/11/03 01:14:44;;;;;;;0.90;0.70;;;19.10;55.50;;;;;;5114273;28;20471;-11
2022/11/03 01:17:14;;;;;;;1.58;0.95;;;19.20;55.60;;;;;;5113939;28;20040;-11
2022/11/03 01:19:40;;;;;;;1.70;0.80;;;19.10;55.60;;;;;;5111619;28;20052;-11
2022/11/03 01:22:06;;;;;;;1.25;1.05;;;19.10;55.50;;;;;;5113795;28;20117;-11
2022/11/03 01:24:33;;;;;;;1.42;0.95;;;19.10;55.50;;;;;;5112721;28;20062;-11
2022/11/03 01:26:59;;;;;;;1.92;0.82;;;19.10;55.50;;;;;;5113825;28;20055;-11
2022/11/03 01:29:25;;;;;;;2.28;1.00;;;19.10;55.50;;;;;;5113686;28;20048;-12
2022/11/03 01:31:50;;;;;;;1.45;0.88;;;19.10;55.50;;;;;;5095432;28;20051;-11
2022/11/03 01:34:19;;;;;;;1.35;1.00;;;19.10;55.50;;;;;;5113995;28;20051;-11
2022/11/03 01:36:45;;;;;;;0.98;0.85;;;19.10;55.60;;;;;;5113598;28;20520;-11
2022/11/03 01:39:12;;;;;;;2.10;0.90;;;19.10;55.50;;;;;;5095279;28;20075;-11
2022/11/03 01:41:39;;;;;;;1.10;0.70;;;19.10;55.60;;;;;;5113578;28;20150;-11
2022/11/03 01:44:07;;;;;;;1.33;0.93;;;19.10;55.50;;;;;;5113492;28;20051;-11
2022/11/03 01:46:45;;;;;;;1.10;1.00;;;19.10;55.50;;;;;;5113317;28;20450;-11
2022/11/03 01:49:27;;;;;;;0.82;0.82;;;19.10;55.60;;;;;;5113927;28;20450;-11
2022/11/03 01:52:10;;;;;;;0.93;0.80;;;19.10;55.60;;;;;;5113721;28;20083;-11
2022/11/03 01:54:38;;;;;;;1.10;0.80;;;19.10;55.50;;;;;;5113658;28;20121;-11
2022/11/03 01:57:09;;;;;;;0.98;0.70;;;19.10;55.50;;;;;;5113314;28;20079;-12
2022/11/03 01:59:35;;;;;;;1.75;1.10;;;19.10;56.00;;;;;;5113181;28;20047;-11
2022/11/03 02:02:01;;;;;;;1.25;0.88;;;19.10;55.50;;;;;;5113034;28;20135;-11
2022/11/03 02:04:30;;;;;;;1.25;0.90;;;19.10;55.60;;;;;;5113037;28;20082;-11
2022/11/03 02:07:25;;;;;;;2.17;1.13;;;19.10;55.50;;;;;;5094324;28;20105;-11
2022/11/03 02:09:51;;;;;;;1.13;0.90;;;19.10;55.50;;;;;;5113350;28;20051;-11
2022/11/03 02:12:20;;;;;;;1.17;1.02;;;19.10;55.50;;;;;;5113196;28;20055;-11
2022/11/03 02:15:00;;;;;;;1.42;1.10;;;19.10;55.50;;;;;;5113302;28;20056;-11
2022/11/03 02:17:29;;;;;;;0.95;0.80;;;19.10;55.50;;;;;;5112981;28;20052;-11
2022/11/03 02:20:25;;;;;;;1.13;0.98;;;19.10;55.60;;;;;;5112933;28;20066;-11
2022/11/03 02:23:00;;;;;;;1.02;0.90;;;19.10;55.50;;;;;;5111610;28;20101;-11
2022/11/03 02:25:48;;;;;;;1.75;1.13;;;19.10;55.50;;;;;;5095016;28;20052;-11
2022/11/03 02:28:25;;;;;;;0.73;0.73;;;19.10;55.50;;;;;;5112984;28;20058;-11
2022/11/03 02:31:11;;;;;;;0.82;0.80;;;19.10;55.50;;;;;;5113244;28;20545;-12
2022/11/03 02:33:48;;;;;;;1.25;0.80;;;19.10;55.50;;;;;;5112970;28;20105;-11
2022/11/03 02:36:39;;;;;;;1.23;0.90;;;19.10;55.50;;;;;;5116424;28;20051;-11
2022/11/03 02:39:17;;;;;;;1.70;1.00;;;19.10;55.60;;;;;;5116348;28;20420;-11
2022/11/03 02:41:45;;;;;;;1.08;0.80;;;19.10;55.50;;;;;;5116335;28;20052;-11
2022/11/03 02:44:17;;;;;;;1.08;0.90;;;19.10;55.50;;;;;;5116232;28;20407;-11
2022/11/03 02:46:45;;;;;;;0.90;0.77;;;19.10;55.50;;;;;;5116319;28;20055;-11
2022/11/03 02:49:11;;;;;;;1.50;0.73;;;19.10;55.50;;;;;;5116103;28;20044;-11
2022/11/03 02:51:37;;;;;;;0.80;0.80;;;19.00;55.50;;;;;;5115574;28;20059;-11
2022/11/03 02:54:05;;;;;;;1.63;1.10;;;19.10;55.50;;;;;;5116203;28;20055;-11
2022/11/03 02:56:38;;;;;;;1.17;0.95;;;19.00;55.50;;;;;;5114669;28;20044;-11
2022/11/03 02:59:09;;;;;;;1.10;0.90;;;19.10;55.50;;;;;;5116479;28;20047;-11
2022/11/03 03:01:35;;;;;;;1.35;0.80;;;19.10;55.50;;;;;;5116430;28;20058;-12
2022/11/03 03:04:05;;;;;;;1.05;0.85;;;19.10;55.50;;;;;;5116028;28;20478;-11
2022/11/03 03:06:49;;;;;;;1.38;0.88;;;19.00;55.50;;;;;;5116190;28;20055;-11
2022/11/03 03:09:22;;;;;;;1.77;0.90;;;19.00;55.50;;;;;;5115909;28;20048;-11
2022/11/03 03:11:50;;;;;;;0.60;0.60;;;19.00;55.50;;;;;;5116175;28;20050;-11
2022/11/03 03:14:30;;;;;;;1.38;0.90;;;19.10;55.50;;;;;;5115879;28;20118;-11
2022/11/03 03:17:03;;;;;;;1.10;0.70;;;19.00;55.50;;;;;;5097656;28;20487;-11
2022/11/03 03:19:35;;;;;;;0.82;0.68;;;19.00;55.50;;;;;;5116135;28;20123;-11
2022/11/03 03:22:09;;;;;;;1.70;1.05;;;19.00;56.00;;;;;;5115626;28;20047;-11
2022/11/03 03:24:49;;;;;;;0.73;0.68;;;19.10;55.60;;;;;;5115528;28;20540;-11
2022/11/03 03:27:18;;;;;;;1.50;0.73;;;19.10;55.60;;;;;;5115494;28;20052;-11
2022/11/03 03:30:05;;;;;;;1.02;0.85;;;19.00;55.50;;;;;;5115632;28;20522;-11
2022/11/03 03:32:36;;;;;;;1.35;0.80;;;19.00;55.60;;;;;;5115768;28;20058;-11
2022/11/03 03:35:04;;;;;;;1.65;0.88;;;19.00;55.50;;;;;;5115498;28;20456;-11
2022/11/03 03:37:32;;;;;;;1.50;0.93;;;19.00;55.50;;;;;;5115358;28;20059;-11
2022/11/03 03:40:03;;;;;;;1.02;0.90;;;19.00;55.50;;;;;;5115527;28;20481;-12
2022/11/03 03:42:31;;;;;;;2.42;1.13;;;19.10;55.50;;;;;;5115444;28;20051;-11
2022/11/03 03:44:58;;;;;;;0.93;0.82;;;19.10;55.40;;;;;;5115983;28;20078;-11
2022/11/03 03:47:29;;;;;;;1.13;0.75;;;19.10;55.30;;;;;;5114420;28;20151;-11
2022/11/03 03:49:56;;;;;;;0.88;0.73;;;19.10;55.30;;;;;;5115986;28;20134;-11
2022/11/03 03:52:22;;;;;;;0.90;0.70;;;19.20;55.30;;;;;;5115580;28;20100;-11
2022/11/03 03:54:48;;;;;;;0.60;0.60;;;19.20;55.10;;;;;;5115257;28;20483;-11
2022/11/03 03:57:21;;;;;;;1.00;0.90;;;19.20;55.00;;;;;;5115532;28;20134;-11
2022/11/03 03:59:46;;;;;;;1.02;0.90;;;19.30;54.90;;;;;;5115085;28;20047;-11
2022/11/03 04:02:12;;;;;;;0.90;0.73;;;19.30;54.80;;;;;;5115362;28;20067;-11
2022/11/03 04:04:38;;;;;;;1.75;1.15;;;19.40;54.70;;;;;;5115315;28;20100;-11
2022/11/03 04:09:48;;;;;;;0.70;0.70;;;19.40;54.50;;;;;;5115178;28;20123;-12
2022/11/03 04:23:17;;;;;;;0.70;0.70;;;19.40;54.40;;;;;;5072877;28;20043;-11
2022/11/03 04:26:05;;;;;;;2.35;1.05;;;19.50;54.40;;;;;;5115048;28;20066;-11
2022/11/03 04:28:33;;;;;;;0.68;0.68;;;19.50;54.40;;;;;;5114408;28;20047;-11
2022/11/03 04:30:58;;;;;;;0.70;0.60;;;19.50;54.40;;;;;;5114893;28;20054;-11
2022/11/03 04:33:24;;;;;;;1.50;0.90;;;19.40;54.30;;;;;;5114576;28;20043;-11
2022/11/03 04:35:53;;;;;;;0.77;0.70;;;19.50;54.30;;;;;;5114617;28;20047;-11
2022/11/03 04:38:22;;;;;;;1.00;0.90;;;19.50;54.30;;;;;;5114462;28;20058;-12
2022/11/03 04:40:57;;;;;;;0.77;0.70;;;19.50;54.40;;;;;;5110730;28;20055;-11
2022/11/03 04:43:44;;;;;;;0.70;0.70;;;19.50;54.30;;;;;;5114455;28;20047;-11
2022/11/03 04:46:16;;;;;;;0.70;0.70;;;19.50;54.20;;;;;;5114657;28;20048;-11
2022/11/03 04:48:43;;;;;;;0.93;0.60;;;19.50;54.20;;;;;;5114289;28;20063;-11
2022/11/03 04:51:30;;;;;;;0.93;0.68;;;19.50;54.30;;;;;;5114247;28;20050;-11
2022/11/03 04:54:12;;;;;;;1.00;0.90;;;19.50;54.40;;;;;;5114111;28;20137;-11
2022/11/03 04:56:39;;;;;;;0.85;0.70;;;19.40;54.50;;;;;;5114265;28;20201;-12
2022/11/03 04:59:11;;;;;;;1.20;0.63;;;19.30;54.60;;;;;;5114119;28;20097;-11
2022/11/03 05:01:37;;;;;;;0.70;0.70;;;19.40;54.70;;;;;;5114255;28;20500;-12
2022/11/03 05:04:10;;;;;;;0.82;0.80;;;19.30;54.70;;;;;;5114069;28;20128;-11
2022/11/03 05:06:36;;;;;;;0.75;0.60;;;19.30;54.80;;;;;;5114025;28;20074;-12
2022/11/03 05:09:14;;;;;;;0.73;0.63;;;19.30;54.80;;;;;;5113981;28;20047;-11
2022/11/03 05:11:42;;;;;;;0.68;0.63;;;19.20;54.80;;;;;;5095771;28;20415;-11
2022/11/03 05:14:24;;;;;;;0.65;0.65;;;19.20;54.90;;;;;;5114068;28;20047;-11
2022/11/03 05:16:52;;;;;;;0.75;0.65;;;19.20;54.90;;;;;;5114076;28;20050;-12
2022/11/03 05:19:32;;;;;;;0.90;0.70;;;19.20;55.00;;;;;;5095017;28;20066;-11
2022/11/03 05:21:59;;;;;;;1.10;0.80;;;19.20;55.00;;;;;;5113781;28;20055;-12
2022/11/03 05:24:25;;;;;;;0.88;0.82;;;19.20;55.10;;;;;;5113782;28;20058;-12
2022/11/03 05:26:53;;;;;;;0.65;0.65;;;19.20;55.60;;;;;;5096137;28;20060;-11
2022/11/03 05:29:23;;;;;;;0.60;0.60;;;19.20;55.10;;;;;;5078324;28;20055;-12
2022/11/03 05:31:51;;;;;;;0.90;0.70;;;19.20;55.10;;;;;;5113989;28;20855;-11
2022/11/03 05:34:41;;;;;;;0.70;0.70;;;19.10;55.10;;;;;;5113380;28;20051;-11
2022/11/03 05:37:06;;;;;;;0.88;0.70;;;19.10;55.10;;;;;;5113984;28;20055;-11
2022/11/03 05:39:36;;;;;;;1.17;0.95;;;19.10;55.20;;;;;;5113558;28;20058;-11
2022/11/03 05:42:21;;;;;;;0.90;0.70;;;19.10;55.20;;;;;;5113526;28;20134;-12
2022/11/03 05:44:47;;;;;;;0.75;0.60;;;19.10;55.20;;;;;;5113775;28;20500;-11
2022/11/03 05:47:32;;;;;;;0.68;0.65;;;19.10;55.10;;;;;;5113531;28;20134;-11
2022/11/03 05:50:32;;;;;;;0.85;0.65;;;19.20;55.10;;;;;;5110018;28;20127;-11
2022/11/03 05:53:08;;;;;;;1.27;0.75;;;19.20;55.10;;;;;;5113359;28;20046;-11
2022/11/03 05:55:35;;;;;;;0.93;0.88;;;19.20;55.00;;;;;;5113780;28;20168;-11
2022/11/03 05:58:18;;;;;;;0.60;0.60;;;19.20;54.90;;;;;;5112785;28;20082;-11
2022/11/03 06:00:44;;;;;;;0.60;0.60;;;19.20;54.80;;;;;;5113774;28;20058;-11
2022/11/03 06:03:18;;;;;;;0.73;0.60;;;19.30;54.70;;;;;;5113617;28;20138;-11
2022/11/03 06:05:45;;;;;;;0.85;0.73;;;19.30;54.60;;;;;;5113796;28;20491;-11
2022/11/03 06:08:19;;;;;;;0.95;0.75;;;19.40;54.50;;;;;;5093993;28;20411;-11
2022/11/03 06:10:53;;;;;;;0.65;0.65;;;19.40;54.40;;;;;;5112915;28;20051;-11
2022/11/03 06:13:24;;;;;;;0.95;0.77;;;19.40;54.30;;;;;;5113115;28;20054;-11
2022/11/03 06:15:56;;;;;;;0.85;0.68;;;19.40;54.30;;;;;;5112945;28;20162;-11
2022/11/03 06:18:23;;;;;;;0.60;0.60;;;19.40;54.20;;;;;;5109768;28;20052;-11
2022/11/03 06:21:11;;;;;;;1.55;0.80;;;19.50;54.30;;;;;;5113575;28;20060;-11
2022/11/03 06:23:39;;;;;;;1.05;0.75;;;19.50;54.30;;;;;;5096450;28;20587;-11
2022/11/03 06:26:14;;;;;;;0.93;0.60;;;19.50;54.20;;;;;;5112984;28;20051;-11
2022/11/03 06:28:40;;;;;;;1.75;1.08;;;19.50;54.20;;;;;;5113143;28;20134;-11
2022/11/03 06:31:19;;;;;;;1.13;0.90;;;19.40;54.10;;;;;;5112857;28;20082;-11
2022/11/03 06:33:45;;;;;;;1.17;0.70;;;19.50;54.20;;;;;;5112870;28;20040;-11
2022/11/03 06:36:17;;;;;;;0.93;0.65;;;19.50;54.20;;;;;;5113290;28;20051;-11
2022/11/03 06:38:49;;;;;;;0.60;0.60;;;19.50;54.20;;;;;;5112589;28;20052;-11
2022/11/03 06:41:24;;;;;;;0.73;0.73;;;19.50;54.20;;;;;;5112670;28;20047;-11
2022/11/03 06:43:50;;;;;;;0.75;0.75;;;19.50;54.30;;;;;;5112631;28;20142;-11
2022/11/03 06:46:24;;;;;;;1.10;0.88;;;19.40;54.40;;;;;;5112798;28;20399;-11
2022/11/03 06:48:52;;;;;;;0.73;0.70;;;19.30;54.50;;;;;;5094622;28;20458;-11
2022/11/03 06:51:21;;;;;;;0.82;0.70;;;19.30;54.60;;;;;;5112515;28;20047;-11
2022/11/03 06:53:49;;;;;;;0.65;0.60;;;19.30;54.60;;;;;;5112435;28;20114;-12
2022/11/03 06:56:18;;;;;;;1.10;0.85;;;19.30;54.60;;;;;;5112519;28;20143;-11
2022/11/03 06:58:45;;;;;;;1.13;0.90;;;19.30;54.70;;;;;;5112393;28;20105;-11
2022/11/03 07:01:17;;;;;;;0.88;0.70;;;19.20;54.70;;;;;;5112446;28;20107;-11
2022/11/03 07:03:43;;;;;;;0.95;0.60;;;19.20;54.70;;;;;;5112627;28;20058;-11
2022/11/03 07:06:08;;;;;;;1.48;0.80;;;19.30;54.80;;;;;;5112215;28;20056;-11
2022/11/03 07:08:43;;;;;;;0.95;0.70;;;19.20;54.80;;;;;;5112048;28;20601;-11
2022/11/03 07:11:20;;;;;;;0.70;0.70;;;19.20;54.80;;;;;;5112221;28;20054;-11
2022/11/03 07:13:49;;;;;;;1.45;0.70;;;19.20;54.80;;;;;;5111876;28;20137;-12
2022/11/03 07:16:42;;;;;;;0.55;0.55;;;19.20;54.80;;;;;;5094105;28;20059;-12
2022/11/03 07:19:31;;;;;;;0.77;0.70;;;19.20;54.80;;;;;;5112168;28;20119;-11
2022/11/03 07:21:59;;;;;;;0.82;0.70;;;19.20;54.80;;;;;;5099941;28;20476;-11
2022/11/03 07:24:29;;;;;;;0.80;0.60;;;19.20;54.70;;;;;;5115713;28;20142;-11
2022/11/03 07:27:18;;;;;;;0.75;0.70;;;19.30;54.70;;;;;;5097426;28;20499;-11
2022/11/03 07:29:45;;;;;;;0.70;0.60;;;19.30;54.70;;;;;;5115131;28;20048;-11
2022/11/03 07:32:17;;;;;;;1.05;0.90;;;19.30;54.60;;;;;;5115226;28;20502;-11
2022/11/03 07:34:44;;;;;;;0.90;0.68;;;19.30;54.60;;;;;;5115159;28;20084;-11
2022/11/03 07:37:25;;;;;;;0.80;0.63;;;19.30;54.60;;;;;;5115374;28;20051;-11
2022/11/03 07:39:51;;;;;;;1.20;0.77;;;19.30;54.60;;;;;;5115392;28;20428;-11
2022/11/03 07:42:22;;;;;;;0.85;0.68;;;19.30;54.50;;;;;;5115389;28;20483;-11
2022/11/03 07:44:51;;;;;;;0.65;0.65;;;19.30;54.50;;;;;;5095937;28;20058;-11
2022/11/03 07:47:25;;;;;;;0.82;0.80;;;19.30;54.50;;;;;;5115062;28;20059;-11
2022/11/03 07:49:51;;;;;;;0.80;0.73;;;19.30;54.40;;;;;;5078957;28;20052;-11
2022/11/03 07:52:23;;;;;;;0.70;0.68;;;19.30;54.30;;;;;;5096552;28;20136;-12
2022/11/03 07:54:53;;;;;;;1.05;0.68;;;19.40;54.20;;;;;;5115101;28;20055;-11
2022/11/03 07:57:23;;;;;;;1.00;0.90;;;19.50;54.10;;;;;;5114671;28;20082;-10
2022/11/03 07:59:56;;;;;;;0.80;0.80;;;19.50;54.20;;;;;;5114378;28;20056;-11
2022/11/03 08:02:44;;;;;;;1.10;0.75;;;19.40;54.10;;;;;;5096444;28;20052;-11
2022/11/03 08:05:09;;;;;;;1.23;0.70;;;19.40;54.20;;;;;;5114897;28;20044;-12
2022/11/03 08:07:35;;;;;;;0.93;0.75;;;19.40;54.30;;;;;;5114711;28;20040;-12
2022/11/03 08:10:01;;;;;;;0.50;0.50;;;19.40;54.30;;;;;;5114653;28;20054;-11
2022/11/03 08:12:26;;;;;;;0.80;0.65;;;19.40;54.20;;;;;;5114727;28;20059;-12
2022/11/03 08:14:52;;;;;;;0.65;0.65;;;19.40;54.20;;;;;;5114788;28;20055;-12
2022/11/03 08:17:18;;;;;;;0.70;0.70;;;19.40;54.10;;;;;;5115086;28;20391;-12
2022/11/03 08:19:44;;;;;;;1.25;0.70;;;19.40;54.20;;;;;;5114645;28;20058;-11
2022/11/03 08:22:10;;;;;;;1.05;0.80;;;19.40;54.30;;;;;;5114693;28;20058;-11
2022/11/03 08:24:35;;;;;;;0.95;0.70;;;19.40;54.30;;;;;;5112807;28;20460;-11
2022/11/03 08:27:02;;;;;;;1.65;0.98;;;19.40;54.40;;;;;;5115004;28;20058;-11
2022/11/03 08:29:28;;;;;;;1.00;0.90;;;19.40;54.40;;;;;;5114469;28;20864;-11
2022/11/03 08:31:53;;;;;;;1.40;0.82;;;19.30;54.30;;;;;;5114398;28;20055;-11
2022/11/03 08:34:19;;;;;;;0.57;0.57;;;19.30;54.40;;;;;;5095851;28;20043;-11
2022/11/03 08:36:45;;;;;;;0.63;0.63;;;19.30;54.40;;;;;;5113906;28;20047;-11
2022/11/03 08:39:10;;;;;;;0.90;0.80;;;19.30;54.40;;;;;;5114044;28;20084;-12
2022/11/03 08:41:36;;;;;;;0.95;0.75;;;19.30;54.40;;;;;;5114344;28;20079;-12
2022/11/03 08:44:02;;;;;;;1.88;1.13;;;19.40;54.40;;;;;;5114381;28;20108;-12
2022/11/03 08:46:27;;;;;;;1.27;0.75;;;19.40;54.90;;;;;;5114269;28;20059;-12
2022/11/03 08:48:54;;;;;;;1.25;0.77;;;19.30;54.40;;;;;;5112935;28;20051;-12
2022/11/03 08:51:20;;;;;;;0.70;0.70;;;19.30;54.40;;;;;;5114487;28;20597;-12
2022/11/03 08:53:49;;;;;;;1.63;0.68;;;19.30;54.30;;;;;;5114150;28;20087;-12
2022/11/03 08:56:15;;;;;;;0.80;0.80;;;19.30;54.40;;;;;;5114110;28;20050;-11
2022/11/03 08:58:42;;;;;;;1.20;0.60;;;19.30;54.30;;;;;;5095646;28;20067;-12
2022/11/03 09:01:08;;;;;;;0.93;0.65;;;19.30;54.40;;;;;;5113892;28;20056;-12
2022/11/03 09:03:36;;;;;;;0.70;0.60;;;19.30;54.40;;;;;;5113562;28;20124;-12
2022/11/03 09:06:03;;;;;;;1.33;0.55;;;19.30;54.30;;;;;;5114003;28;20461;-12
2022/11/03 09:08:28;;;;;;;1.23;0.80;;;19.30;54.30;;;;;;5113569;28;20075;-12
2022/11/03 09:10:54;;;;;;;0.75;0.70;;;19.40;54.30;;;;;;5094124;28;20409;-11
2022/11/03 09:13:20;;;;;;;1.08;0.80;;;19.40;54.20;;;;;;5113481;28;20055;-12
2022/11/03 09:15:46;;;;;;;1.35;0.80;;;19.40;54.20;;;;;;5113347;28;20052;-12
2022/11/03 09:18:12;;;;;;;1.08;0.63;;;19.40;54.20;;;;;;5113693;28;20054;-12
2022/11/03 09:20:37;;;;;;;0.80;0.80;;;19.40;54.20;;;;;;5113199;28;20059;-12
2022/11/03 09:23:03;;;;;;;1.33;0.75;;;19.40;54.10;;;;;;5113239;28;20549;-12
2022/11/03 09:25:29;;;;;;;1.15;0.80;;;19.40;54.10;;;;;;5113386;28;20047;-12
2022/11/03 09:27:55;;;;;;;1.25;0.80;;;19.40;54.10;;;;;;5094935;28;20048;-12
2022/11/03 09:30:21;;;;;;;1.63;0.68;;;19.40;54.00;;;;;;5113597;28;20077;-12
2022/11/03 09:32:47;;;;;;;1.92;0.60;;;19.50;54.10;;;;;;5095190;28;20131;-12
2022/11/03 09:35:16;;;;;;;1.00;0.60;;;19.50;54.10;;;;;;5113129;28;20128;-12
2022/11/03 09:37:42;;;;;;;0.68;0.68;;;19.50;54.60;;;;;;5113052;28;20122;-12
2022/11/03 09:40:10;;;;;;;0.98;0.60;;;19.50;54.00;;;;;;5112933;28;20134;-12
2022/11/03 09:42:37;;;;;;;1.48;0.80;;;19.50;54.00;;;;;;5112758;28;20060;-12
2022/11/03 09:45:05;;;;;;;0.77;0.77;;;19.50;54.00;;;;;;5111976;28;20043;-12
2022/11/03 09:47:34;;;;;;;0.80;0.63;;;19.50;54.00;;;;;;5113536;28;20063;-12
2022/11/03 09:50:01;;;;;;;2.10;0.90;;;19.50;53.90;;;;;;5113358;28;20128;-12
2022/11/03 09:52:27;;;;;;;0.80;0.80;;;19.50;53.90;;;;;;5113092;28;20055;-12
2022/11/03 09:54:58;;;;;;;0.73;0.73;;;19.50;54.00;;;;;;5112722;28;20146;-12
2022/11/03 09:57:26;;;;;;;1.10;0.80;;;19.50;54.00;;;;;;5112728;28;20078;-11
2022/11/03 09:59:53;;;;;;;0.93;0.90;;;19.50;54.00;;;;;;5113428;28;20500;-12
2022/11/03 10:02:30;;;;;;;0.63;0.63;;;19.50;54.00;;;;;;5112260;28;20062;-11
2022/11/03 10:05:01;;;;;;;1.30;0.93;;;19.50;54.00;;;;;;5094400;28;20052;-12
2022/11/03 10:07:29;;;;;;;0.90;0.70;;;19.50;54.00;;;;;;5112799;28;20139;-12
2022/11/03 10:09:57;;;;;;;0.85;0.85;;;19.50;54.00;;;;;;5112763;28;20130;-12
2022/11/03 10:12:24;;;;;;;0.70;0.70;;;19.50;54.00;;;;;;5112830;28;20047;-12
2022/11/03 10:14:50;;;;;;;0.75;0.70;;;19.50;53.90;;;;;;5112944;28;20063;-12
2022/11/03 10:17:19;;;;;;;0.85;0.70;;;19.50;53.90;;;;;;5112534;28;20517;-10
2022/11/03 10:19:51;;;;;;;0.60;0.60;;;19.40;53.90;;;;;;5112468;28;20054;-11
2022/11/03 10:22:19;;;;;;;0.95;0.82;;;19.50;54.00;;;;;;5112667;28;20135;-11
2022/11/03 10:24:45;;;;;;;1.00;0.90;;;19.50;54.00;;;;;;5112373;28;20047;-10
2022/11/03 10:27:24;;;;;;;0.65;0.65;;;19.40;54.00;;;;;;5112484;28;20460;-11
2022/11/03 10:30:08;;;;;;;1.52;0.88;;;19.50;54.00;;;;;;5094113;28;20052;-11
2022/11/03 10:32:35;;;;;;;1.13;0.70;;;19.40;54.00;;;;;;5112998;28;20040;-11
2022/11/03 10:35:30;;;;;;;0.80;0.70;;;19.40;54.00;;;;;;5112903;28;20054;-11
2022/11/03 10:38:17;;;;;;;0.80;0.70;;;19.40;54.00;;;;;;5113147;28;20059;-11
2022/11/03 10:40:42;;;;;;;0.70;0.70;;;19.40;54.00;;;;;;5112934;28;20051;-11
2022/11/03 10:43:10;;;;;;;0.93;0.88;;;19.40;54.00;;;;;;5112515;28;20048;-11
2022/11/03 10:45:36;;;;;;;1.05;0.70;;;19.40;54.00;;;;;;5112337;28;20057;-11
2022/11/03 10:48:05;;;;;;;1.02;0.75;;;19.40;53.90;;;;;;5112559;28;20500;-11
2022/11/03 10:50:31;;;;;;;0.63;0.63;;;19.50;53.90;;;;;;5112485;28;20051;-11
2022/11/03 10:52:57;;;;;;;0.75;0.70;;;19.50;53.80;;;;;;5112338;28;20051;-11
2022/11/03 10:55:24;;;;;;;1.60;1.00;;;19.50;53.80;;;;;;5060937;28;20055;-11
2022/11/03 10:57:54;;;;;;;1.58;1.13;;;19.50;53.80;;;;;;5115947;28;20470;-11
2022/11/03 11:00:20;;;;;;;1.08;0.98;;;19.50;53.70;;;;;;5097990;28;20133;-11
2022/11/03 11:02:47;;;;;;;1.00;0.80;;;19.50;53.60;;;;;;5116358;28;20336;-10
2022/11/03 11:05:21;;;;;;;1.25;0.68;;;19.50;53.60;;;;;;5098006;28;20047;-10
2022/11/03 11:07:50;;;;;;;2.05;1.05;;;19.50;53.50;;;;;;5115728;28;20122;-11
2022/11/03 11:10:19;;;;;;;1.27;0.98;;;19.60;53.60;;;;;;5115695;28;20055;-11
2022/11/03 11:13:24;;;;;;;1.95;1.15;;;19.60;53.50;;;;;;5115740;28;20511;-11
2022/11/03 11:15:58;;;;;;;0.82;0.75;;;19.60;53.50;;;;;;5115342;28;20074;-11
2022/11/03 11:18:27;;;;;;;1.10;0.80;;;19.60;53.40;;;;;;5115508;28;20051;-11
2022/11/03 11:21:13;;;;;;;1.77;1.20;;;19.60;53.50;;;;;;5115600;28;20189;-11
2022/11/03 11:23:40;;;;;;;1.17;0.90;;;19.60;53.40;;;;;;5097074;28;20182;-11
2022/11/03 11:26:25;;;;;;;0.98;0.80;;;19.60;53.40;;;;;;5115381;28;20487;-10
2022/11/03 11:29:12;;;;;;;2.42;1.20;;;19.60;53.40;;;;;;5115492;28;20047;-11
2022/11/03 11:31:42;;;;;;;1.13;0.85;;;19.60;53.40;;;;;;5115262;28;20096;-11
2022/11/03 11:34:33;;;;;;;0.80;0.80;;;19.60;53.40;;;;;;5115829;28;20063;-11
2022/11/03 11:36:59;;;;;;;2.95;1.40;;;19.60;53.30;;;;;;5115169;28;20044;-11
2022/11/03 11:39:25;;;;;;;1.40;0.90;;;19.60;53.40;;;;;;5094869;28;20059;-11
2022/11/03 11:42:10;;;;;;;1.42;1.00;;;19.50;53.40;;;;;;5115422;28;20142;-11
2022/11/03 11:44:52;;;;;;;1.50;0.95;;;19.50;53.40;;;;;;5115146;28;20130;-11
2022/11/03 11:47:34;;;;;;;0.82;0.80;;;19.50;53.40;;;;;;5114912;28;20047;-11
2022/11/03 11:50:12;;;;;;;1.92;1.17;;;19.50;53.40;;;;;;5114897;28;20053;-11
2022/11/03 11:52:47;;;;;;;2.00;1.10;;;19.50;53.50;;;;;;5115317;28;20048;-12
2022/11/03 11:55:41;;;;;;;1.05;0.85;;;19.50;53.50;;;;;;5115078;28;20077;-11
2022/11/03 11:58:24;;;;;;;1.20;1.00;;;19.50;53.50;;;;;;5111196;28;20519;-11
2022/11/03 12:00:59;;;;;;;1.67;1.00;;;19.50;53.60;;;;;;5096942;28;20069;-11
2022/11/03 12:03:29;;;;;;;1.05;0.95;;;19.50;53.50;;;;;;5114837;28;20466;-11
2022/11/03 12:05:55;;;;;;;1.67;1.05;;;19.50;53.60;;;;;;5115012;28;20443;-11
2022/11/03 12:08:28;;;;;;;1.90;1.02;;;19.50;53.50;;;;;;5095665;28;20044;-11
2022/11/03 12:11:05;;;;;;;1.30;0.90;;;19.50;53.50;;;;;;5114940;28;20134;-11
2022/11/03 12:13:42;;;;;;;2.50;1.83;;;19.50;53.50;;;;;;5114844;28;20062;-11
2022/11/03 12:16:09;;;;;;;1.15;0.77;;;19.50;53.60;;;;;;5096689;28;20376;-11
2022/11/03 12:18:40;;;;;;;1.38;1.02;;;19.50;53.50;;;;;;5114584;28;20064;-11
2022/11/03 12:21:08;;;;;;;2.58;1.42;;;19.50;53.50;;;;;;5114807;28;20055;-11
2022/11/03 12:23:46;;;;;;;0.80;0.80;;;19.40;53.50;;;;;;5114319;28;20044;-11
2022/11/03 12:26:26;;;;;;;1.13;0.90;;;19.50;53.60;;;;;;5114518;28;20056;-11
2022/11/03 12:28:52;;;;;;;1.55;1.00;;;19.40;53.50;;;;;;5114300;28;20048;-11
2022/11/03 12:31:18;;;;;;;1.67;1.13;;;19.40;53.50;;;;;;5115121;28;20134;-11
2022/11/03 12:33:44;;;;;;;1.42;0.90;;;19.50;53.50;;;;;;5114287;28;20139;-11
2022/11/03 12:36:09;;;;;;;2.05;1.30;;;19.50;53.50;;;;;;5114279;28;20109;-11
2022/11/03 12:38:35;;;;;;;0.80;0.63;;;19.50;53.50;;;;;;5114308;28;20130;-11
2022/11/03 12:41:23;;;;;;;1.33;0.98;;;19.50;53.40;;;;;;5114619;28;20051;-11
2022/11/03 12:43:50;;;;;;;1.70;1.10;;;19.50;53.40;;;;;;5095768;28;20043;-11
2022/11/03 12:46:18;;;;;;;2.55;1.20;;;19.50;53.40;;;;;;5114126;28;20047;-11
2022/11/03 12:48:44;;;;;;;1.30;1.00;;;19.50;53.40;;;;;;5114159;28;20101;-11
2022/11/03 12:51:15;;;;;;;1.50;1.13;;;19.50;53.30;;;;;;5114223;28;20059;-11
2022/11/03 12:53:41;;;;;;;1.65;1.20;;;19.50;53.30;;;;;;5113945;28;20553;-11
2022/11/03 12:56:09;;;;;;;1.00;0.90;;;19.50;53.30;;;;;;5096159;28;20476;-11
2022/11/03 12:58:35;;;;;;;1.17;1.08;;;19.50;53.30;;;;;;5114072;28;20131;-11
2022/11/03 13:01:02;;;;;;;2.33;1.10;;;19.50;53.30;;;;;;5113745;28;20079;-11
2022/11/03 13:03:28;;;;;;;1.25;0.98;;;19.50;53.30;;;;;;5113712;28;20078;-11
2022/11/03 13:05:54;;;;;;;1.20;1.00;;;19.50;53.30;;;;;;5113041;28;20081;-11
2022/11/03 13:08:20;;;;;;;0.82;0.80;;;19.50;53.40;;;;;;5113850;28;20460;-11
2022/11/03 13:10:46;;;;;;;1.58;0.93;;;19.50;53.40;;;;;;5113767;28;20067;-11
2022/11/03 13:13:12;;;;;;;1.38;1.15;;;19.50;53.40;;;;;;5114087;28;20130;-11
2022/11/03 13:15:38;;;;;;;1.13;1.00;;;19.50;53.40;;;;;;5113407;28;20048;-11
2022/11/03 13:18:04;;;;;;;1.10;1.00;;;19.50;53.40;;;;;;5113548;28;20055;-11
2022/11/03 13:20:31;;;;;;;1.10;0.80;;;19.50;53.40;;;;;;5112356;28;20105;-11
2022/11/03 13:22:57;;;;;;;2.05;1.30;;;19.50;53.40;;;;;;5113344;28;20047;-11
2022/11/03 13:25:23;;;;;;;1.05;0.90;;;19.50;53.40;;;;;;5113487;28;20043;-11